Terminal Aerodrome Forecast
Issued by NWS Brownsville, TX

Home | Current Version | Previous Version | Text Only | Print | Product List | Glossary On
Versions: 1 2 3 4 5 6 7 8 9 10 11 12 13 14
000
FTUS44 KBRO 211736
TAFBRO
TAF
KBRO 211736Z 2118/2218 10013G18KT P6SM SCT050
     FM220200 12005KT P6SM SKC
     FM220700 00000KT P6SM FEW020
     FM221400 12005KT P6SM SCT035=

USA.gov is the U.S. government's official web portal to all federal, state and local government web resources and services.